createdAt,value
2022-11-12T00:00:32.049Z,7.50
2022-11-12T00:03:20.674Z,7.50
2022-11-12T00:06:09.216Z,7.40
2022-11-12T00:08:57.480Z,7.40
2022-11-12T00:11:45.710Z,7.40
2022-11-12T00:14:33.960Z,7.30
2022-11-12T00:17:23.622Z,7.30
2022-11-12T00:20:12.675Z,7.30
2022-11-12T00:23:00.938Z,7.30
2022-11-12T00:25:49.195Z,7.30
2022-11-12T00:28:38.478Z,7.20
2022-11-12T00:31:26.985Z,7.20
2022-11-12T00:34:16.848Z,7.30
2022-11-12T00:37:05.747Z,7.30
2022-11-12T00:39:53.979Z,7.30
2022-11-12T00:42:42.230Z,7.30
2022-11-12T00:45:30.478Z,7.10
2022-11-12T00:48:18.724Z,7.10
2022-11-12T00:51:08.473Z,7.00
2022-11-12T00:53:56.695Z,7.00
2022-11-12T00:56:47.355Z,6.90
2022-11-12T00:59:35.602Z,6.80
2022-11-12T01:02:23.880Z,6.70
2022-11-12T01:05:12.116Z,6.70
2022-11-12T01:08:01.738Z,6.60
2022-11-12T01:10:49.974Z,6.50
2022-11-12T01:13:43.950Z,6.40
2022-11-12T01:16:36.390Z,6.40
2022-11-12T01:19:24.703Z,6.30
2022-11-12T01:22:13.126Z,6.30
2022-11-12T01:25:02.727Z,6.20
2022-11-12T01:27:50.991Z,6.20
2022-11-12T01:30:39.224Z,6.20
2022-11-12T01:33:27.620Z,6.10
2022-11-12T01:36:17.806Z,6.10
2022-11-12T01:39:06.890Z,6.20
2022-11-12T01:41:56.485Z,6.20
2022-11-12T01:44:46.757Z,6.10
2022-11-12T01:47:36.158Z,6.20
2022-11-12T01:50:29.144Z,6.20
2022-11-12T01:53:19.098Z,6.20
2022-11-12T01:56:09.573Z,6.20
2022-11-12T01:59:05.422Z,6.20
2022-11-12T02:01:53.693Z,6.20
2022-11-12T02:04:43.239Z,6.20
2022-11-12T02:07:33.441Z,6.30
2022-11-12T02:10:22.565Z,6.40
2022-11-12T02:13:28.369Z,6.40
2022-11-12T02:16:17.967Z,6.40
2022-11-12T02:19:09.215Z,6.40
2022-11-12T02:21:58.824Z,6.50
2022-11-12T02:24:47.059Z,6.40
2022-11-12T02:27:36.060Z,6.40
2022-11-12T02:30:33.628Z,6.30
2022-11-12T02:33:21.861Z,6.30
2022-11-12T02:36:10.512Z,6.30
2022-11-12T02:39:00.273Z,6.20
2022-11-12T02:41:48.584Z,6.20
2022-11-12T02:44:36.967Z,6.20
2022-11-12T02:47:25.205Z,6.10
2022-11-12T02:50:13.639Z,6.10
2022-11-12T02:53:01.895Z,6.00
2022-11-12T02:55:51.773Z,6.00
2022-11-12T02:58:40.015Z,5.90
2022-11-12T03:01:28.597Z,5.90
2022-11-12T03:04:16.845Z,6.00
2022-11-12T03:07:05.225Z,5.90
2022-11-12T03:09:53.539Z,5.90
2022-11-12T03:12:43.166Z,5.80
2022-11-12T03:15:32.231Z,5.80
2022-11-12T03:18:20.469Z,5.80
2022-11-12T03:21:08.759Z,5.80
2022-11-12T03:23:57.016Z,5.80
2022-11-12T03:26:46.488Z,5.70
2022-11-12T03:29:36.120Z,5.70
2022-11-12T03:32:24.413Z,5.70
2022-11-12T03:35:12.828Z,5.60
2022-11-12T03:38:01.724Z,5.50
2022-11-12T03:40:50.430Z,5.40
2022-11-12T03:43:38.662Z,5.40
2022-11-12T03:46:28.245Z,5.30
2022-11-12T03:49:16.468Z,5.30
2022-11-12T03:52:04.731Z,5.30
2022-11-12T03:54:52.961Z,5.30
2022-11-12T03:57:41.471Z,5.30
2022-11-12T04:00:30.437Z,5.20
2022-11-12T04:03:19.998Z,5.20
2022-11-12T04:06:26.810Z,5.10
2022-11-12T04:09:15.157Z,5.10
2022-11-12T04:12:23.684Z,5.10
2022-11-12T04:15:11.979Z,5.00
2022-11-12T04:18:20.250Z,5.00
2022-11-12T04:21:27.833Z,5.00
2022-11-12T04:24:30.076Z,5.00
2022-11-12T04:27:20.257Z,4.90
2022-11-12T04:30:18.689Z,4.90
2022-11-12T04:33:06.977Z,4.90
2022-11-12T04:35:55.233Z,4.90
2022-11-12T04:38:44.843Z,4.90
2022-11-12T04:41:50.661Z,4.80
2022-11-12T04:45:01.191Z,4.80
2022-11-12T04:47:49.494Z,4.80
2022-11-12T04:50:38.346Z,4.80
2022-11-12T04:53:27.333Z,4.70
2022-11-12T04:56:17.052Z,4.70
2022-11-12T04:59:05.373Z,4.50
2022-11-12T05:01:53.775Z,4.50
2022-11-12T05:04:42.120Z,4.50
2022-11-12T05:07:32.973Z,4.40
2022-11-12T05:10:21.217Z,4.40
2022-11-12T05:13:10.836Z,4.40
2022-11-12T05:15:59.061Z,4.30
2022-11-12T05:18:47.375Z,4.30
2022-11-12T05:21:53.283Z,4.30
2022-11-12T05:24:43.542Z,4.30
2022-11-12T05:27:31.846Z,4.30
2022-11-12T05:30:21.546Z,4.30
2022-11-12T05:33:09.771Z,4.10
2022-11-12T05:35:58.356Z,4.10
2022-11-12T05:38:46.559Z,4.10
2022-11-12T05:41:57.962Z,4.10
2022-11-12T05:44:43.115Z,4.10
2022-11-12T05:47:32.720Z,4.10
2022-11-12T05:50:20.979Z,4.00
2022-11-12T05:53:09.242Z,4.00
2022-11-12T05:56:02.581Z,3.90
2022-11-12T05:58:50.829Z,3.80
2022-11-12T06:01:43.900Z,3.80
2022-11-12T06:04:33.516Z,3.70
2022-11-12T06:07:21.858Z,3.70
2022-11-12T06:10:10.517Z,3.70
2022-11-12T06:12:59.517Z,3.70
2022-11-12T06:15:47.801Z,3.60
2022-11-12T06:18:36.225Z,3.70
2022-11-12T06:21:27.852Z,3.60
2022-11-12T06:24:16.537Z,3.60
2022-11-12T06:27:04.891Z,3.50
2022-11-12T06:29:53.772Z,3.40
2022-11-12T06:32:42.212Z,3.50
2022-11-12T06:35:30.470Z,3.50
2022-11-12T06:38:20.062Z,3.50
2022-11-12T06:41:09.915Z,3.50
2022-11-12T06:43:58.156Z,3.50
2022-11-12T06:46:46.477Z,3.50
2022-11-12T06:49:34.701Z,3.50
2022-11-12T06:52:23.028Z,3.50
2022-11-12T06:55:12.704Z,3.50
2022-11-12T06:58:01.042Z,3.50
2022-11-12T07:00:49.336Z,3.50
2022-11-12T07:03:38.143Z,3.60
2022-11-12T07:06:26.388Z,3.60
2022-11-12T07:09:14.701Z,3.70
2022-11-12T07:12:04.432Z,3.70
2022-11-12T07:14:52.782Z,3.70
2022-11-12T07:17:41.016Z,3.80
2022-11-12T07:20:29.557Z,3.90
2022-11-12T07:23:17.966Z,3.90
2022-11-12T07:26:08.117Z,3.90
2022-11-12T07:28:57.771Z,4.00
2022-11-12T07:31:46.287Z,4.20
2022-11-12T07:34:34.534Z,4.30
2022-11-12T07:37:22.773Z,4.40
2022-11-12T07:40:12.116Z,4.50
2022-11-12T07:43:00.417Z,4.60
2022-11-12T07:45:50.024Z,4.70
2022-11-12T07:48:41.928Z,4.80
2022-11-12T07:51:41.120Z,4.90
2022-11-12T07:54:29.468Z,5.00
2022-11-12T07:57:17.878Z,5.10
2022-11-12T08:00:07.301Z,5.20
2022-11-12T08:03:00.119Z,5.40
2022-11-12T08:05:48.922Z,5.50
2022-11-12T08:08:37.471Z,5.60
2022-11-12T08:11:26.098Z,5.70
2022-11-12T08:14:14.409Z,5.80
2022-11-12T08:17:02.699Z,5.90
2022-11-12T08:19:55.276Z,6.00
2022-11-12T08:22:49.460Z,6.10
2022-11-12T08:25:38.296Z,6.20
2022-11-12T08:28:26.957Z,6.30
2022-11-12T08:36:41.375Z,6.60
2022-11-12T08:39:29.598Z,6.70
2022-11-12T08:42:17.853Z,6.90
2022-11-12T08:45:06.922Z,7.10
2022-11-12T08:48:00.387Z,7.20
2022-11-12T08:50:48.845Z,7.40
2022-11-12T08:53:38.567Z,7.60
2022-11-12T08:56:26.921Z,7.70
2022-11-12T08:59:16.226Z,7.90
2022-11-12T09:02:05.947Z,8.10
2022-11-12T09:04:54.289Z,8.30
2022-11-12T09:07:50.131Z,8.40
2022-11-12T09:10:41.147Z,8.60
2022-11-12T09:13:29.707Z,8.80
2022-11-12T09:16:18.589Z,8.90
2022-11-12T09:19:07.001Z,9.00
2022-11-12T09:21:55.354Z,9.20
2022-11-12T09:24:44.612Z,9.30
2022-11-12T09:27:34.418Z,9.50
2022-11-12T09:30:23.366Z,9.60
2022-11-12T09:33:11.797Z,9.80
2022-11-12T09:36:02.717Z,10.00
2022-11-12T09:38:51.708Z,10.20
2022-11-12T09:41:41.498Z,10.30
2022-11-12T09:44:36.649Z,10.40
2022-11-12T09:47:31.336Z,10.60
2022-11-12T09:50:22.765Z,10.60
2022-11-12T09:53:18.470Z,10.80
2022-11-12T09:56:09.385Z,10.80
2022-11-12T09:59:00.846Z,10.90
2022-11-12T10:02:01.183Z,11.00
2022-11-12T10:05:17.030Z,11.10
2022-11-12T10:08:21.307Z,11.10
2022-11-12T10:12:04.249Z,11.20
2022-11-12T10:15:43.483Z,11.20
2022-11-12T10:18:46.827Z,11.30
2022-11-12T10:21:42.058Z,11.40
2022-11-12T10:24:36.171Z,11.40
2022-11-12T10:27:28.645Z,11.50
2022-11-12T10:30:19.258Z,11.60
2022-11-12T10:33:07.627Z,11.70
2022-11-12T10:35:58.244Z,11.70
2022-11-12T10:38:49.467Z,11.80
2022-11-12T10:41:37.878Z,11.80
2022-11-12T10:44:28.038Z,11.90
2022-11-12T10:47:28.926Z,11.90
2022-11-12T10:50:21.809Z,11.90
2022-11-12T10:53:14.024Z,12.00
2022-11-12T10:56:04.225Z,12.00
2022-11-12T10:59:11.227Z,12.10
2022-11-12T11:02:02.115Z,12.10
2022-11-12T11:04:50.538Z,12.20
2022-11-12T11:07:39.073Z,12.20
2022-11-12T11:10:31.392Z,12.20
2022-11-12T11:13:22.095Z,12.30
2022-11-12T11:16:14.778Z,12.40
2022-11-12T11:19:06.301Z,12.40
2022-11-12T11:22:06.169Z,12.40
2022-11-12T11:25:13.337Z,12.40
2022-11-12T11:28:14.681Z,12.40
2022-11-12T11:31:14.244Z,12.50
2022-11-12T11:34:14.216Z,12.50
2022-11-12T11:37:09.193Z,12.40
2022-11-12T11:40:06.927Z,12.40
2022-11-12T11:43:27.211Z,12.40
2022-11-12T11:46:24.222Z,12.30
2022-11-12T11:49:48.256Z,12.30
2022-11-12T11:52:56.873Z,12.30
2022-11-12T12:00:09.251Z,12.40
2022-11-12T12:03:17.173Z,12.40
2022-11-12T12:06:12.726Z,12.50
2022-11-12T12:09:11.855Z,12.50
2022-11-12T12:12:13.062Z,12.60
2022-11-12T12:15:26.647Z,12.70
2022-11-12T12:18:27.335Z,12.70
2022-11-12T12:21:18.258Z,12.80
2022-11-12T12:24:13.821Z,12.90
2022-11-12T12:27:09.129Z,13.00
2022-11-12T12:30:02.267Z,13.00
2022-11-12T12:32:57.956Z,13.10
2022-11-12T12:35:53.868Z,13.10
2022-11-12T12:38:49.632Z,13.20
2022-11-12T12:41:45.256Z,13.20
2022-11-12T12:44:59.656Z,13.30
2022-11-12T12:47:49.650Z,13.30
2022-11-12T12:50:41.190Z,13.30
2022-11-12T12:53:34.524Z,13.40
2022-11-12T12:56:47.058Z,13.40
2022-11-12T12:59:35.586Z,13.50
2022-11-12T13:02:25.593Z,13.70
2022-11-12T13:05:25.872Z,13.80
2022-11-12T13:08:22.002Z,13.90
2022-11-12T13:11:10.796Z,14.00
2022-11-12T13:14:42.578Z,14.10
2022-11-12T13:17:48.596Z,14.20
2022-11-12T13:20:39.413Z,14.30
2022-11-12T13:24:06.917Z,14.30
2022-11-12T13:26:57.744Z,14.40
2022-11-12T13:29:47.733Z,14.40
2022-11-12T13:32:39.075Z,14.40
2022-11-12T13:35:29.893Z,14.40
2022-11-12T13:38:20.079Z,14.40
2022-11-12T13:41:17.222Z,14.40
2022-11-12T13:44:09.046Z,14.50
2022-11-12T13:46:58.009Z,14.50
2022-11-12T13:49:48.801Z,14.60
2022-11-12T13:52:37.747Z,14.50
2022-11-12T13:55:26.460Z,14.60
2022-11-12T13:58:26.651Z,14.50
2022-11-12T14:01:15.304Z,14.40
2022-11-12T14:04:03.664Z,14.30
2022-11-12T14:06:53.758Z,14.10
2022-11-12T14:10:04.666Z,13.90
2022-11-12T14:13:23.739Z,13.80
2022-11-12T14:16:30.236Z,13.70
2022-11-12T14:19:39.588Z,13.60
2022-11-12T14:22:36.447Z,13.50
2022-11-12T14:25:27.006Z,13.40
2022-11-12T14:28:29.646Z,13.30
2022-11-12T14:31:25.388Z,13.20
2022-11-12T14:34:27.637Z,13.00
2022-11-12T14:37:38.447Z,13.00
2022-11-12T14:40:33.279Z,12.80
2022-11-12T14:43:28.340Z,12.70
2022-11-12T14:46:23.939Z,12.60
2022-11-12T14:49:19.754Z,12.50
2022-11-12T14:52:13.134Z,12.40
2022-11-12T14:55:10.174Z,12.30
2022-11-12T14:57:59.603Z,12.20
2022-11-12T15:00:50.596Z,12.10
2022-11-12T15:03:38.771Z,12.00
2022-11-12T15:06:32.359Z,11.90
2022-11-12T15:09:32.348Z,11.80
2022-11-12T15:12:27.433Z,11.70
2022-11-12T15:15:21.052Z,11.60
2022-11-12T15:18:18.764Z,11.50
2022-11-12T15:21:14.488Z,11.40
2022-11-12T15:24:08.632Z,11.40
2022-11-12T15:26:58.095Z,11.30
2022-11-12T15:29:46.585Z,11.10
2022-11-12T15:32:35.887Z,11.00
2022-11-12T15:35:37.004Z,10.90
2022-11-12T15:38:26.704Z,10.70
2022-11-12T15:41:27.412Z,10.60
2022-11-12T15:44:15.946Z,10.60
2022-11-12T15:47:04.875Z,10.50
2022-11-12T15:49:54.832Z,10.40
2022-11-12T15:52:44.899Z,10.40
2022-11-12T15:55:33.544Z,10.20
2022-11-12T15:58:31.450Z,10.10
2022-11-12T16:01:19.796Z,10.10
2022-11-12T16:04:08.223Z,10.00
2022-11-12T16:06:56.477Z,10.00
2022-11-12T16:09:46.149Z,9.90
2022-11-12T16:12:34.633Z,9.80
2022-11-12T16:15:25.589Z,9.60
2022-11-12T16:18:14.222Z,9.50
2022-11-12T16:21:02.530Z,9.30
2022-11-12T16:23:50.811Z,9.10
2022-11-12T16:30:50.639Z,9.00
2022-11-12T16:33:38.857Z,8.90
2022-11-12T16:36:27.104Z,8.80
2022-11-12T16:39:15.425Z,8.70
2022-11-12T16:42:03.860Z,8.60
2022-11-12T16:44:52.172Z,8.50
2022-11-12T16:47:45.558Z,8.50
2022-11-12T16:50:33.865Z,8.40
2022-11-12T16:53:22.234Z,8.30
2022-11-12T16:56:13.982Z,8.20
2022-11-12T16:59:02.295Z,8.20
2022-11-12T17:01:50.647Z,8.10
2022-11-12T17:04:40.352Z,8.00
2022-11-12T17:07:28.719Z,7.90
2022-11-12T17:10:17.598Z,7.90
2022-11-12T17:13:05.915Z,7.80
2022-11-12T17:15:58.663Z,7.70
2022-11-12T17:18:47.058Z,7.60
2022-11-12T17:21:36.890Z,7.50
2022-11-12T17:24:27.091Z,7.40
2022-11-12T17:27:15.485Z,7.40
2022-11-12T17:30:04.397Z,7.30
2022-11-12T17:32:52.714Z,7.30
2022-11-12T17:35:41.038Z,7.20
2022-11-12T17:38:30.961Z,7.10
2022-11-12T17:41:19.320Z,7.10
2022-11-12T17:44:07.916Z,7.00
2022-11-12T17:46:56.613Z,6.90
2022-11-12T17:49:45.127Z,6.90
2022-11-12T17:52:33.677Z,6.90
2022-11-12T17:55:23.397Z,6.90
2022-11-12T17:58:11.970Z,6.80
2022-11-12T18:01:08.350Z,6.90
2022-11-12T18:03:58.203Z,6.80
2022-11-12T18:06:46.579Z,6.70
2022-11-12T18:09:36.081Z,6.60
2022-11-12T18:12:25.714Z,6.60
2022-11-12T18:15:14.306Z,6.50
2022-11-12T18:18:04.611Z,6.50
2022-11-12T18:20:53.007Z,6.50
2022-11-12T18:23:43.562Z,6.40
2022-11-12T18:26:32.028Z,6.40
2022-11-12T18:29:21.744Z,6.40
2022-11-12T18:32:10.054Z,6.40
2022-11-12T18:34:58.464Z,6.30
2022-11-12T18:37:46.862Z,6.30
2022-11-12T18:40:35.245Z,6.30
2022-11-12T18:43:23.606Z,6.20
2022-11-12T18:46:13.270Z,6.20
2022-11-12T18:49:01.671Z,6.20
2022-11-12T18:51:50.035Z,6.10
2022-11-12T18:54:38.410Z,6.00
2022-11-12T18:57:26.759Z,6.00
2022-11-12T19:00:16.749Z,6.00
2022-11-12T19:03:06.873Z,5.90
2022-11-12T19:05:59.002Z,5.90
2022-11-12T19:08:47.453Z,5.90
2022-11-12T19:11:36.074Z,5.80
2022-11-12T19:14:24.512Z,5.80
2022-11-12T19:17:12.891Z,5.70
2022-11-12T19:20:02.579Z,5.60
2022-11-12T19:22:50.964Z,5.60
2022-11-12T19:25:39.351Z,5.70
2022-11-12T19:28:27.907Z,5.70
2022-11-12T19:31:18.427Z,5.60
2022-11-12T19:34:06.734Z,5.60
2022-11-12T19:37:26.836Z,5.50
2022-11-12T19:40:06.177Z,5.60
2022-11-12T19:42:54.573Z,5.50
2022-11-12T19:45:42.868Z,5.40
2022-11-12T19:48:31.635Z,5.30
2022-11-12T19:51:20.172Z,5.40
2022-11-12T19:54:10.169Z,5.30
2022-11-12T19:56:58.499Z,5.30
2022-11-12T19:59:47.137Z,5.30
2022-11-12T20:02:35.516Z,5.20
2022-11-12T20:05:23.865Z,5.10
2022-11-12T20:08:12.133Z,5.10
2022-11-12T20:11:02.783Z,5.10
2022-11-12T20:13:53.518Z,5.10
2022-11-12T20:16:41.960Z,5.00
2022-11-12T20:19:30.252Z,4.90
2022-11-12T20:22:18.587Z,5.00
2022-11-12T20:25:07.509Z,4.90
2022-11-12T20:27:57.246Z,4.90
2022-11-12T20:30:45.926Z,4.90
2022-11-12T20:33:39.280Z,4.90
2022-11-12T20:36:31.436Z,4.80
2022-11-12T20:39:19.751Z,4.70
2022-11-12T20:42:08.071Z,4.60
2022-11-12T20:44:57.721Z,4.50
2022-11-12T20:47:46.048Z,4.50
2022-11-12T20:50:34.522Z,4.60
2022-11-12T20:53:22.924Z,4.60
2022-11-12T20:56:13.808Z,4.60
2022-11-12T20:59:02.845Z,4.50
2022-11-12T21:01:52.835Z,4.50
2022-11-12T21:04:41.195Z,4.40
2022-11-12T21:07:29.594Z,4.40
2022-11-12T21:10:18.454Z,4.40
2022-11-12T21:13:06.768Z,4.50
2022-11-12T21:15:55.491Z,4.40
2022-11-12T21:18:45.275Z,4.40
2022-11-12T21:21:33.620Z,4.40
2022-11-12T21:24:22.071Z,4.40
2022-11-12T21:27:11.478Z,4.40
2022-11-12T21:29:59.833Z,4.40
2022-11-12T21:32:48.201Z,4.30
2022-11-12T21:35:37.879Z,4.30
2022-11-12T21:38:26.487Z,4.30
2022-11-12T21:41:16.755Z,4.20
2022-11-12T21:44:05.301Z,4.20
2022-11-12T21:46:53.627Z,4.30
2022-11-12T21:49:41.970Z,4.20
2022-11-12T21:52:31.755Z,4.20
2022-11-12T21:55:20.101Z,4.10
2022-11-12T21:58:08.426Z,4.10
2022-11-12T22:00:56.803Z,4.20
2022-11-12T22:03:45.939Z,4.20
2022-11-12T22:06:38.407Z,4.20
2022-11-12T22:09:28.221Z,4.10
2022-11-12T22:12:16.546Z,4.10
2022-11-12T22:15:05.407Z,4.10
2022-11-12T22:17:53.760Z,4.10
2022-11-12T22:20:42.462Z,4.20
2022-11-12T22:23:32.999Z,4.10
2022-11-12T22:26:25.269Z,4.10
2022-11-12T22:29:13.559Z,4.10
2022-11-12T22:32:01.981Z,4.10
2022-11-12T22:34:50.324Z,4.10
2022-11-12T22:37:38.777Z,4.10
2022-11-12T22:40:27.124Z,4.00
2022-11-12T22:43:16.784Z,4.00
2022-11-12T22:46:06.637Z,4.00
2022-11-12T22:48:55.634Z,4.00
2022-11-12T22:51:44.056Z,4.00
2022-11-12T22:54:32.360Z,4.00
2022-11-12T22:57:20.730Z,4.00
2022-11-12T23:00:12.687Z,4.00
2022-11-12T23:03:01.062Z,4.00
2022-11-12T23:05:49.488Z,4.20
2022-11-12T23:08:37.915Z,4.20
2022-11-12T23:11:27.010Z,4.20
2022-11-12T23:14:15.383Z,4.30
2022-11-12T23:17:05.092Z,4.40
2022-11-12T23:19:53.469Z,4.40
2022-11-12T23:22:42.011Z,4.40
2022-11-12T23:25:30.764Z,4.40
2022-11-12T23:28:19.127Z,4.50
2022-11-12T23:31:12.324Z,4.50
2022-11-12T23:34:02.453Z,4.60
2022-11-12T23:36:50.833Z,4.60
2022-11-12T23:39:39.169Z,4.60
2022-11-12T23:42:28.774Z,4.60
2022-11-12T23:45:17.418Z,4.60
2022-11-12T23:48:06.491Z,4.60
2022-11-12T23:51:02.426Z,4.60
2022-11-12T23:53:51.125Z,4.60
2022-11-12T23:56:39.502Z,4.60
2022-11-12T23:59:27.799Z,4.60
